Accueil
METAR-TAF:

METAR-TAF

Aéroports :

Guilin, Chine

Aéroport international de Guilin Liangjiang

latitude: 25-20N, longitude: 110-18E, altitude: 166 m

Observation

Le bulletin a été fait il y a 37 minutes, à 09:00 UTC
Vent 6 kt de est/sud-est, variant entre est/nord-est et sud-ouest
Température 32°C
Humidité 46%
Pression 1007 hPa
Visibilité 10 km ou plus
Quelques nuages à une hauteur de 6600 ft

METAR: ZGKL 290900Z 12003MPS 060V220 9999 FEW066 32/19 Q1007 NOSIG

Heure: 17:37 (09:37 UTC)

Prévision

Le bulletin a été fait il y a 6 heures et 32 minutes, à 03:05 UTC
Prévision valable du 29 à 06 UTC au 30 à 06 UTC
Vent 6 kt de sud
Visibilité 10 km ou plus
pas de nuages en-dessous de 1500 mètres et pas de cumulonimbus.

TAF: ZGKL 290305Z 2906/3006 18003MPS CAVOK TX33/2908Z TN18/2923Z

Observations et prévisions météorologiques de plus de 4000 aéroports (messages METAR et TAF).

Les stations disponibles sont représentées par des disques jaunes et rouges sur la carte.

Passer la souris dessus pour voir le nom de la station.

Cliquer dessus pour voir les observations et prévisions météorologiques.

Pour changer de carte: cliquez sur les boutons verts avec une croix noire pour zoomer, sur le bouton vert avec un tiret pour effectuer un zoom arrière, ou sur les flèches vertes pour les cartes adjacentes.


METAR-TAF: